Time;durP1;ratioP1;P1;durP2;ratioP2;P2;SDS_P1;SDS_P2;PMS_P1;PMS_P2;Temp;Humidity;BMP_temperature;BMP_pressure;BME280_temperature;BME280_humidity;BME280_pressure;Samples;Min_cycle;Max_cycle;Signal;HPM_P1;HPM_P2
2023/06/21 00:00:35;;;;;;;9.38;6.40;;;22.90;88.00;;;;;;6185131;23;20074;-81
2023/06/21 00:03:01;;;;;;;7.10;4.90;;;22.90;88.60;;;;;;6158583;23;20025;-81
2023/06/21 00:05:27;;;;;;;7.43;4.68;;;22.80;88.10;;;;;;6183872;23;20382;-81
2023/06/21 00:07:54;;;;;;;6.22;4.50;;;22.80;88.00;;;;;;6158469;23;20013;-81
2023/06/21 00:10:23;;;;;;;6.18;4.32;;;22.80;87.90;;;;;;6158655;23;20028;-81
2023/06/21 00:12:52;;;;;;;6.20;4.55;;;22.80;88.00;;;;;;6184029;23;20020;-81
2023/06/21 00:15:18;;;;;;;7.13;4.97;;;22.80;88.10;;;;;;6158684;23;20361;-81
2023/06/21 00:17:44;;;;;;;7.40;5.35;;;22.70;88.00;;;;;;6184548;23;20024;-82
2023/06/21 00:20:10;;;;;;;7.22;5.00;;;22.70;88.00;;;;;;6158037;23;20024;-81
2023/06/21 00:22:37;;;;;;;6.90;5.22;;;22.70;88.10;;;;;;6185435;23;20017;-81
2023/06/21 00:25:04;;;;;;;7.03;5.22;;;22.70;88.30;;;;;;6157262;23;20072;-81
2023/06/21 00:27:29;;;;;;;8.45;5.22;;;22.70;88.10;;;;;;6184950;23;20064;-81
2023/06/21 00:29:55;;;;;;;7.55;4.95;;;22.60;88.20;;;;;;6184534;23;20439;-81
2023/06/21 00:32:20;;;;;;;6.97;5.13;;;22.60;88.20;;;;;;6158474;23;20048;-81
2023/06/21 00:34:47;;;;;;;7.63;5.30;;;22.50;88.30;;;;;;6187434;23;20092;-81
2023/06/21 00:37:15;;;;;;;7.60;5.15;;;22.50;88.30;;;;;;6186301;23;20024;-81
2023/06/21 00:39:41;;;;;;;8.40;5.70;;;22.50;88.20;;;;;;6159610;23;20047;-81
2023/06/21 00:42:08;;;;;;;7.47;5.95;;;22.50;88.90;;;;;;6160276;23;20527;-81
2023/06/21 00:44:34;;;;;;;8.88;5.80;;;22.50;88.90;;;;;;6160709;23;20096;-81
2023/06/21 00:46:59;;;;;;;6.68;5.05;;;22.50;88.90;;;;;;6160228;23;20071;-81
2023/06/21 00:49:27;;;;;;;8.43;5.25;;;22.40;88.90;;;;;;6188755;23;20040;-81
2023/06/21 00:51:57;;;;;;;8.95;5.35;;;22.40;89.00;;;;;;6188419;23;20017;-81
2023/06/21 00:54:34;;;;;;;8.05;5.38;;;22.40;88.90;;;;;;6160878;23;20021;-81
2023/06/21 00:57:04;;;;;;;8.15;5.85;;;22.30;89.00;;;;;;6188291;23;20017;-81
2023/06/21 00:59:30;;;;;;;7.10;5.20;;;22.30;89.20;;;;;;6161972;23;20087;-81
2023/06/21 01:02:00;;;;;;;7.28;5.22;;;22.30;89.10;;;;;;6160612;23;20013;-81
2023/06/21 01:04:29;;;;;;;8.50;6.32;;;22.30;89.20;;;;;;6161686;23;20056;-81
2023/06/21 01:07:03;;;;;;;9.38;5.43;;;22.30;89.30;;;;;;6186942;23;20017;-81
2023/06/21 01:09:50;;;;;;;12.35;9.00;;;22.20;89.30;;;;;;6161744;23;20021;-81
2023/06/21 01:12:35;;;;;;;7.05;5.60;;;22.20;90.10;;;;;;6161727;23;20027;-81
2023/06/21 01:15:15;;;;;;;9.65;7.25;;;22.20;90.20;;;;;;6187136;23;20028;-81
2023/06/21 01:17:44;;;;;;;15.27;9.90;;;22.10;90.70;;;;;;6188413;23;20472;-81
2023/06/21 01:20:18;;;;;;;9.43;6.68;;;22.10;91.30;;;;;;6188242;23;20017;-81
2023/06/21 01:22:49;;;;;;;8.02;6.05;;;22.10;90.70;;;;;;6187556;23;20021;-81
2023/06/21 01:25:24;;;;;;;12.55;9.80;;;22.10;90.40;;;;;;6188227;23;20017;-81
2023/06/21 01:28:28;;;;;;;9.50;8.10;;;22.10;90.90;;;;;;6187747;23;20434;-81
2023/06/21 01:30:57;;;;;;;;;;;22.00;90.50;;;;;;6188300;23;20045;-81
2023/06/21 01:33:23;;;;;;;10.57;7.55;;;21.90;89.60;;;;;;6161624;23;19966;-81
2023/06/21 01:35:52;;;;;;;15.05;10.55;;;21.90;90.80;;;;;;6160248;23;20028;-82
2023/06/21 01:38:18;;;;;;;10.65;8.32;;;21.90;91.60;;;;;;6187925;23;20360;-82
2023/06/21 01:40:44;;;;;;;8.07;5.85;;;21.90;91.20;;;;;;6188317;23;20017;-81
2023/06/21 01:43:10;;;;;;;9.80;6.68;;;21.90;90.60;;;;;;6161258;23;20021;-81
2023/06/21 01:45:36;;;;;;;9.65;7.43;;;21.90;90.50;;;;;;6187020;23;20378;-82
2023/06/21 01:48:03;;;;;;;9.20;6.60;;;21.90;90.70;;;;;;6184868;23;20045;-81
2023/06/21 01:50:31;;;;;;;9.70;6.88;;;21.80;90.50;;;;;;6157967;23;20028;-82
2023/06/21 01:52:57;;;;;;;14.23;11.05;;;21.90;90.40;;;;;;6158351;23;20024;-81
2023/06/21 01:55:23;;;;;;;9.50;7.07;;;21.80;90.90;;;;;;6158709;23;20021;-81
2023/06/21 01:57:49;;;;;;;9.93;8.07;;;21.80;90.60;;;;;;6183495;23;20088;-81
2023/06/21 02:00:21;;;;;;;16.48;13.43;;;21.80;90.40;;;;;;6185208;23;20017;-81
2023/06/21 02:02:54;;;;;;;13.55;10.77;;;21.80;91.30;;;;;;6158744;23;20346;-81
2023/06/21 02:05:21;;;;;;;12.52;9.75;;;21.70;91.40;;;;;;6157593;23;20068;-81
2023/06/21 02:07:48;;;;;;;12.43;9.68;;;21.60;91.40;;;;;;6158663;23;20069;-81
2023/06/21 02:10:15;;;;;;;10.40;7.20;;;21.60;91.10;;;;;;6184066;23;20049;-81
2023/06/21 02:12:42;;;;;;;11.50;9.93;;;21.60;90.90;;;;;;6158639;23;20389;-81
2023/06/21 02:15:08;;;;;;;14.55;12.38;;;21.50;91.10;;;;;;6158584;23;20076;-82
2023/06/21 02:17:34;;;;;;;10.07;8.98;;;21.50;91.80;;;;;;6185387;23;20469;-81
2023/06/21 02:20:00;;;;;;;12.93;10.95;;;21.50;91.50;;;;;;6186090;23;20049;-81
2023/06/21 02:22:25;;;;;;;11.43;8.57;;;21.40;91.40;;;;;;6186489;23;20020;-80
2023/06/21 02:24:51;;;;;;;16.13;13.85;;;21.40;91.50;;;;;;6158075;23;20017;-81
2023/06/21 02:27:16;;;;;;;16.73;15.07;;;21.40;91.70;;;;;;6186458;23;20088;-81
2023/06/21 02:29:42;;;;;;;13.35;11.90;;;21.40;92.20;;;;;;6186281;23;20013;-81
2023/06/21 02:32:08;;;;;;;13.75;12.18;;;21.40;92.00;;;;;;6185109;23;20025;-81
2023/06/21 02:34:33;;;;;;;18.13;14.60;;;21.30;91.90;;;;;;6159675;23;20020;-81
2023/06/21 02:36:59;;;;;;;20.00;17.88;;;21.30;92.40;;;;;;6185123;23;20075;-82
2023/06/21 02:39:25;;;;;;;18.30;16.45;;;21.20;92.70;;;;;;6185197;23;20021;-81
2023/06/21 02:41:54;;;;;;;21.17;19.00;;;21.20;92.80;;;;;;6185941;23;20016;-81
2023/06/21 02:44:20;;;;;;;18.08;16.15;;;21.20;92.80;;;;;;6185990;23;20033;-81
2023/06/21 02:46:45;;;;;;;21.40;19.25;;;21.10;92.90;;;;;;6185448;23;20013;-81
2023/06/21 02:49:11;;;;;;;22.08;19.77;;;21.10;93.10;;;;;;6185524;23;20100;-81
2023/06/21 02:51:37;;;;;;;18.63;16.75;;;21.10;93.10;;;;;;6159627;23;20337;-81
2023/06/21 02:54:03;;;;;;;20.17;16.88;;;21.10;92.90;;;;;;6184575;23;20075;-82
2023/06/21 02:56:30;;;;;;;18.10;16.25;;;21.10;92.90;;;;;;6159325;23;20021;-81
2023/06/21 02:58:56;;;;;;;17.92;16.02;;;21.00;92.70;;;;;;6158979;23;20052;-81
2023/06/21 03:01:21;;;;;;;25.70;22.95;;;21.10;92.60;;;;;;6158568;23;20456;-81
2023/06/21 03:03:47;;;;;;;19.85;17.80;;;21.00;93.10;;;;;;6159260;23;20456;-81
2023/06/21 03:06:13;;;;;;;22.00;19.85;;;21.00;92.80;;;;;;6185544;23;20028;-81
2023/06/21 03:08:38;;;;;;;26.50;23.85;;;21.00;92.90;;;;;;6184763;23;20092;-81
2023/06/21 03:11:12;;;;;;;18.08;16.08;;;21.00;93.20;;;;;;6185587;23;20021;-81
2023/06/21 03:13:37;;;;;;;21.70;18.30;;;21.00;92.70;;;;;;6184776;23;20017;-82
2023/06/21 03:16:04;;;;;;;27.08;24.27;;;20.90;92.50;;;;;;6185111;23;20489;-81
2023/06/21 03:18:30;;;;;;;23.60;20.75;;;20.90;93.20;;;;;;6185988;23;20017;-81
2023/06/21 03:21:01;;;;;;;18.55;16.65;;;20.90;93.20;;;;;;6184068;23;20025;-81
2023/06/21 03:23:27;;;;;;;18.25;16.33;;;20.90;92.70;;;;;;6159351;23;20024;-81
2023/06/21 03:25:53;;;;;;;22.42;20.08;;;20.90;92.50;;;;;;6185199;23;20021;-81
2023/06/21 03:28:18;;;;;;;19.52;16.85;;;20.80;92.30;;;;;;6184674;23;20074;-81
2023/06/21 03:30:44;;;;;;;24.50;22.00;;;20.80;92.30;;;;;;6185901;23;20064;-81
2023/06/21 03:33:10;;;;;;;28.83;25.90;;;20.80;92.70;;;;;;6158844;23;20045;-81
2023/06/21 03:35:36;;;;;;;27.48;24.77;;;20.90;93.30;;;;;;6158166;23;20464;-81
2023/06/21 03:38:02;;;;;;;23.90;21.27;;;20.80;93.50;;;;;;6184767;23;20013;-81
2023/06/21 03:40:28;;;;;;;19.75;17.48;;;20.80;93.10;;;;;;6185810;23;20068;-81
2023/06/21 03:42:54;;;;;;;22.23;19.80;;;20.80;92.90;;;;;;6157915;23;20009;-81
2023/06/21 03:45:20;;;;;;;19.98;17.88;;;20.70;92.70;;;;;;6158829;23;20021;-81
2023/06/21 03:47:46;;;;;;;24.95;22.40;;;20.70;92.50;;;;;;6185462;23;20374;-80
2023/06/21 03:50:13;;;;;;;23.23;20.85;;;20.70;92.90;;;;;;6184315;23;20084;-80
2023/06/21 03:52:38;;;;;;;28.15;25.33;;;20.70;92.80;;;;;;6159017;23;20068;-81
2023/06/21 03:55:05;;;;;;;21.42;19.15;;;20.70;93.30;;;;;;6158361;23;20016;-81
2023/06/21 03:57:31;;;;;;;26.80;24.17;;;20.60;93.10;;;;;;6184264;23;20441;-81
2023/06/21 03:59:57;;;;;;;33.17;29.33;;;20.60;93.30;;;;;;6185166;23;20017;-81
2023/06/21 04:02:23;;;;;;;30.33;27.10;;;20.60;94.00;;;;;;6185276;23;20016;-81
2023/06/21 04:04:49;;;;;;;29.98;26.52;;;20.60;93.90;;;;;;6157328;23;20029;-81
2023/06/21 04:07:18;;;;;;;25.02;21.38;;;20.60;93.70;;;;;;6158347;23;20013;-81
2023/06/21 04:09:44;;;;;;;21.85;19.65;;;20.50;93.20;;;;;;6184997;23;20033;-81
2023/06/21 04:12:10;;;;;;;29.35;26.38;;;20.60;92.90;;;;;;6184853;23;20012;-81
2023/06/21 04:14:35;;;;;;;31.70;28.42;;;20.50;93.30;;;;;;6185419;23;20009;-81
2023/06/21 04:17:01;;;;;;;23.27;20.95;;;20.50;93.60;;;;;;6184153;23;20017;-81
2023/06/21 04:19:26;;;;;;;36.63;32.00;;;20.50;93.10;;;;;;6185498;23;20013;-80
2023/06/21 04:21:52;;;;;;;36.92;33.17;;;20.50;94.00;;;;;;6185002;23;20009;-81
2023/06/21 04:24:18;;;;;;;25.13;22.52;;;20.50;94.90;;;;;;6184218;23;20052;-80
2023/06/21 04:26:43;;;;;;;31.88;28.48;;;20.50;93.80;;;;;;6158925;23;20342;-81
2023/06/21 04:29:10;;;;;;;30.38;27.17;;;20.40;94.00;;;;;;6184408;23;20021;-81
2023/06/21 04:31:37;;;;;;;27.88;24.98;;;20.50;94.30;;;;;;6158144;23;20017;-81
2023/06/21 04:34:06;;;;;;;28.23;25.33;;;20.40;94.20;;;;;;6158549;23;20021;-80
2023/06/21 04:36:32;;;;;;;29.20;26.40;;;20.40;94.20;;;;;;6157548;23;20021;-81
2023/06/21 04:38:57;;;;;;;37.55;33.72;;;20.40;94.20;;;;;;6157504;23;20504;-81
2023/06/21 04:41:23;;;;;;;26.83;24.08;;;20.40;94.80;;;;;;6185410;23;20017;-81
2023/06/21 04:43:49;;;;;;;24.80;22.30;;;20.40;94.50;;;;;;6158164;23;20393;-81
2023/06/21 04:46:17;;;;;;;29.33;26.48;;;20.40;93.80;;;;;;6157705;23;20326;-81
2023/06/21 04:48:44;;;;;;;36.42;32.67;;;20.40;94.00;;;;;;6158465;23;20014;-81
2023/06/21 04:51:15;;;;;;;25.67;22.92;;;20.40;95.00;;;;;;6185733;23;20068;-81
2023/06/21 04:53:48;;;;;;;34.42;30.85;;;20.40;94.20;;;;;;6158785;23;20017;-85
2023/06/21 04:56:14;;;;;;;31.85;28.48;;;20.30;94.90;;;;;;6159697;23;20442;-85
2023/06/21 04:58:40;;;;;;;25.88;23.27;;;20.40;94.60;;;;;;6160383;23;20013;-86
2023/06/21 05:01:06;;;;;;;38.78;34.85;;;20.30;94.10;;;;;;6185783;23;20024;-86
2023/06/21 05:03:36;;;;;;;27.08;24.38;;;20.40;95.10;;;;;;6158627;23;20017;-81
2023/06/21 05:06:02;;;;;;;35.17;31.33;;;20.30;94.50;;;;;;6183613;23;20013;-81
2023/06/21 05:08:28;;;;;;;29.02;26.17;;;20.30;95.00;;;;;;6185448;23;20017;-80
2023/06/21 05:10:54;;;;;;;25.92;23.08;;;20.30;95.00;;;;;;6184873;23;20024;-81
2023/06/21 05:13:20;;;;;;;29.08;26.15;;;20.30;94.60;;;;;;6184191;23;20021;-81
2023/06/21 05:15:45;;;;;;;33.85;29.85;;;20.40;94.80;;;;;;6185197;23;20016;-81
2023/06/21 05:18:11;;;;;;;34.85;31.10;;;20.30;95.40;;;;;;6185612;23;20333;-81
2023/06/21 05:20:37;;;;;;;29.27;26.17;;;20.30;95.80;;;;;;6159608;23;20013;-81
2023/06/21 05:23:02;;;;;;;29.25;25.80;;;20.40;95.60;;;;;;6160368;23;20017;-81
2023/06/21 05:25:28;;;;;;;26.17;23.45;;;20.40;95.20;;;;;;6187241;23;20017;-81
2023/06/21 05:27:54;;;;;;;29.15;26.08;;;20.30;94.90;;;;;;6159353;23;20091;-82
2023/06/21 05:30:20;;;;;;;24.08;21.40;;;20.40;95.50;;;;;;6187340;23;20401;-82
2023/06/21 05:32:45;;;;;;;33.85;27.33;;;20.30;95.00;;;;;;6160687;23;20024;-82
2023/06/21 05:35:11;;;;;;;28.90;25.83;;;20.30;95.70;;;;;;6158981;23;20021;-82
2023/06/21 05:37:36;;;;;;;28.75;25.60;;;20.30;96.10;;;;;;6160164;23;20356;-82
2023/06/21 05:40:06;;;;;;;27.02;24.08;;;20.30;96.20;;;;;;6186350;23;20021;-82
2023/06/21 05:42:32;;;;;;;24.63;22.00;;;20.40;96.00;;;;;;6186399;23;20005;-80
2023/06/21 05:44:57;;;;;;;25.98;22.00;;;20.40;95.50;;;;;;6186751;23;20146;-80
2023/06/21 05:47:23;;;;;;;26.90;22.40;;;20.40;95.40;;;;;;6160654;23;20017;-81
2023/06/21 05:49:49;;;;;;;26.80;22.20;;;20.40;95.70;;;;;;6185871;23;20013;-82
2023/06/21 05:52:15;;;;;;;23.48;20.88;;;20.40;96.20;;;;;;6160343;23;20527;-82
2023/06/21 05:54:43;;;;;;;25.48;20.73;;;20.40;96.20;;;;;;6186903;23;20017;-82
2023/06/21 05:57:09;;;;;;;22.98;19.95;;;20.40;96.00;;;;;;6185819;23;20052;-82
2023/06/21 05:59:34;;;;;;;22.35;19.60;;;20.40;95.30;;;;;;6187101;23;20020;-81
2023/06/21 06:02:00;;;;;;;21.20;17.90;;;20.30;95.30;;;;;;6159599;23;20017;-82
2023/06/21 06:04:25;;;;;;;21.30;17.63;;;20.40;95.10;;;;;;6185939;23;20020;-85
2023/06/21 06:06:51;;;;;;;23.20;17.05;;;20.40;95.20;;;;;;6186099;23;20013;-83
2023/06/21 06:09:16;;;;;;;21.38;17.05;;;20.40;95.90;;;;;;6186865;23;20373;-82
2023/06/21 06:11:42;;;;;;;19.35;17.23;;;20.40;95.30;;;;;;6185487;23;20019;-83
2023/06/21 06:14:10;;;;;;;20.90;17.02;;;20.40;94.90;;;;;;6159871;23;20830;-81
2023/06/21 06:16:36;;;;;;;21.55;16.58;;;20.40;95.30;;;;;;6185961;23;20017;-81
2023/06/21 06:19:02;;;;;;;21.20;15.82;;;20.50;95.80;;;;;;6186545;23;20024;-82
2023/06/21 06:21:28;;;;;;;19.80;14.80;;;20.50;96.80;;;;;;6187044;23;20330;-82
2023/06/21 06:23:54;;;;;;;17.83;15.35;;;20.50;96.70;;;;;;6185285;23;20016;-82
2023/06/21 06:26:25;;;;;;;17.17;14.32;;;20.50;95.70;;;;;;6186371;23;20445;-82
2023/06/21 06:28:52;;;;;;;16.95;13.68;;;20.50;95.10;;;;;;6186221;23;20021;-81
2023/06/21 06:31:19;;;;;;;19.08;13.88;;;20.50;95.50;;;;;;6185363;23;20028;-82
2023/06/21 06:33:45;;;;;;;17.52;13.85;;;20.60;95.50;;;;;;6159968;23;20028;-82
2023/06/21 06:36:11;;;;;;;17.13;13.48;;;20.60;95.30;;;;;;6186028;23;20022;-82
2023/06/21 06:38:36;;;;;;;17.17;11.65;;;20.60;95.30;;;;;;6185608;23;20024;-82
2023/06/21 06:41:02;;;;;;;15.27;12.00;;;20.70;95.30;;;;;;6185808;23;20017;-82
2023/06/21 06:43:28;;;;;;;15.65;10.73;;;20.70;95.10;;;;;;6160033;23;20067;-82
2023/06/21 06:45:53;;;;;;;15.05;12.02;;;20.70;95.50;;;;;;6184838;23;20020;-82
2023/06/21 06:48:19;;;;;;;16.48;11.15;;;20.70;95.40;;;;;;6159846;23;20020;-83
2023/06/21 06:50:44;;;;;;;15.07;12.02;;;20.80;95.50;;;;;;6159559;23;20103;-81
2023/06/21 06:53:10;;;;;;;16.02;10.70;;;20.80;95.20;;;;;;6158197;23;20013;-82
2023/06/21 06:55:35;;;;;;;14.13;9.93;;;20.80;95.40;;;;;;6186414;23;20504;-82
2023/06/21 06:58:01;;;;;;;14.32;10.93;;;20.90;95.50;;;;;;6185781;23;20009;-82
2023/06/21 07:00:27;;;;;;;15.27;10.23;;;21.00;94.90;;;;;;6185739;23;20012;-82
2023/06/21 07:02:57;;;;;;;14.00;9.90;;;21.00;95.10;;;;;;6186055;23;20051;-82
2023/06/21 07:05:23;;;;;;;15.02;10.50;;;21.10;95.40;;;;;;6186274;23;20016;-81
2023/06/21 07:07:53;;;;;;;13.20;9.32;;;21.10;95.60;;;;;;6185002;23;20017;-81
2023/06/21 07:10:20;;;;;;;12.65;9.73;;;21.10;95.30;;;;;;6159805;23;20025;-81
2023/06/21 07:12:46;;;;;;;12.40;9.00;;;21.30;95.20;;;;;;6158820;23;20071;-82
2023/06/21 07:15:11;;;;;;;13.55;8.70;;;21.30;94.90;;;;;;6159177;23;20028;-81
2023/06/21 07:17:37;;;;;;;12.20;8.82;;;21.30;95.00;;;;;;6159814;23;20092;-81
2023/06/21 07:20:06;;;;;;;11.63;8.52;;;21.40;94.70;;;;;;6184965;23;20019;-82
2023/06/21 07:22:32;;;;;;;14.73;9.20;;;21.50;94.50;;;;;;6186167;23;20088;-81
2023/06/21 07:24:58;;;;;;;10.88;7.97;;;21.60;94.70;;;;;;6159104;23;20045;-82
2023/06/21 07:27:25;;;;;;;11.60;7.95;;;21.60;94.60;;;;;;6158742;23;20346;-81
2023/06/21 07:29:51;;;;;;;11.55;7.75;;;21.70;94.40;;;;;;6159049;23;20017;-81
2023/06/21 07:32:17;;;;;;;10.88;7.93;;;21.80;94.30;;;;;;6186191;23;20013;-82
2023/06/21 07:34:42;;;;;;;12.48;7.95;;;21.90;94.20;;;;;;6185010;23;20088;-82
2023/06/21 07:37:08;;;;;;;11.13;7.57;;;22.00;93.90;;;;;;6185416;23;20087;-82
2023/06/21 07:39:33;;;;;;;10.32;7.22;;;22.00;93.80;;;;;;6186029;23;20014;-81
2023/06/21 07:42:04;;;;;;;10.68;7.07;;;22.10;93.80;;;;;;6184159;23;20338;-82
2023/06/21 07:44:33;;;;;;;11.63;7.20;;;22.20;93.60;;;;;;6186051;23;20020;-83
2023/06/21 07:46:58;;;;;;;9.25;7.00;;;22.20;93.50;;;;;;6158307;23;20020;-82
2023/06/21 07:49:24;;;;;;;13.57;6.90;;;22.30;93.40;;;;;;6185156;23;20067;-84
2023/06/21 07:51:50;;;;;;;9.63;6.53;;;22.40;93.50;;;;;;6158689;23;20024;-83
2023/06/21 07:54:16;;;;;;;9.30;6.55;;;22.50;93.30;;;;;;6159288;23;20013;-81
2023/06/21 07:56:41;;;;;;;9.77;6.88;;;22.60;92.90;;;;;;6158371;23;20024;-83
2023/06/21 07:59:07;;;;;;;9.60;6.30;;;22.60;92.60;;;;;;6159072;23;20044;-82
2023/06/21 08:01:33;;;;;;;10.25;6.22;;;22.70;92.30;;;;;;6185851;23;20143;-83
2023/06/21 08:04:00;;;;;;;10.05;6.68;;;22.80;92.20;;;;;;6157961;23;20163;-83
2023/06/21 08:06:26;;;;;;;13.27;6.05;;;22.90;92.20;;;;;;6158888;23;20020;-84
2023/06/21 08:08:52;;;;;;;10.05;6.65;;;22.90;92.30;;;;;;6185019;23;20080;-82
2023/06/21 08:11:17;;;;;;;9.82;6.15;;;23.00;92.00;;;;;;6185213;23;20374;-84
2023/06/21 08:13:43;;;;;;;9.68;7.00;;;23.00;91.70;;;;;;6185544;23;20369;-83
2023/06/21 08:16:09;;;;;;;8.18;5.60;;;23.10;91.30;;;;;;6184377;23;20472;-83
2023/06/21 08:18:35;;;;;;;7.68;5.75;;;23.10;91.40;;;;;;6159521;23;20021;-83
2023/06/21 08:21:01;;;;;;;9.77;6.25;;;23.20;91.50;;;;;;6185138;23;20377;-82
2023/06/21 08:23:26;;;;;;;9.85;6.82;;;23.20;91.40;;;;;;6158336;23;20021;-83
2023/06/21 08:25:52;;;;;;;8.25;4.95;;;23.30;91.20;;;;;;6185200;23;20337;-84
2023/06/21 08:28:17;;;;;;;8.85;5.55;;;23.30;91.20;;;;;;6159017;23;20013;-86
2023/06/21 08:30:43;;;;;;;7.50;5.32;;;23.30;91.10;;;;;;6158295;23;20029;-85
2023/06/21 08:33:09;;;;;;;10.30;5.43;;;23.40;91.00;;;;;;6185077;23;20099;-83
2023/06/21 08:35:36;;;;;;;9.32;5.15;;;23.50;91.00;;;;;;6158810;23;20017;-85
2023/06/21 08:38:01;;;;;;;7.82;4.93;;;23.50;91.20;;;;;;6184211;23;20024;-83
2023/06/21 08:40:32;;;;;;;8.55;5.22;;;23.60;90.70;;;;;;6185449;23;20429;-85
2023/06/21 08:42:59;;;;;;;8.98;5.32;;;23.60;90.50;;;;;;6157753;23;20045;-86
2023/06/21 08:45:25;;;;;;;8.15;4.93;;;23.70;90.30;;;;;;6157967;23;20024;-85
2023/06/21 08:47:52;;;;;;;7.93;4.80;;;23.80;90.30;;;;;;6157986;23;20020;-84
2023/06/21 08:50:22;;;;;;;8.75;4.80;;;23.80;90.10;;;;;;6159015;23;20021;-85
2023/06/21 08:52:50;;;;;;;6.25;4.32;;;23.80;89.60;;;;;;6158035;23;20021;-85
2023/06/21 08:55:19;;;;;;;7.88;4.93;;;23.80;90.10;;;;;;6186945;23;20116;-85
2023/06/21 08:57:57;;;;;;;7.32;4.50;;;23.80;90.10;;;;;;6186728;23;20017;-85
2023/06/21 09:00:29;;;;;;;9.93;5.05;;;23.90;90.00;;;;;;6160098;23;20020;-83
2023/06/21 09:03:07;;;;;;;8.18;5.03;;;23.90;89.60;;;;;;6186845;23;20024;-83
2023/06/21 09:06:03;;;;;;;6.40;4.03;;;24.00;88.70;;;;;;6159428;23;20052;-84
2023/06/21 09:08:33;;;;;;;8.95;4.60;;;24.10;89.70;;;;;;6156316;23;20076;-82
2023/06/21 09:11:00;;;;;;;6.22;4.20;;;24.10;88.80;;;;;;6160873;23;20341;-81
2023/06/21 09:13:27;;;;;;;5.70;3.80;;;24.20;89.00;;;;;;6159883;23;20028;-82
2023/06/21 09:15:54;;;;;;;6.13;3.13;;;24.30;89.40;;;;;;6159826;23;20144;-81
2023/06/21 09:18:21;;;;;;;8.55;3.83;;;24.30;88.40;;;;;;6187097;23;20020;-82
2023/06/21 09:20:49;;;;;;;8.07;3.92;;;24.40;88.90;;;;;;6159416;23;20044;-83
2023/06/21 09:23:15;;;;;;;6.20;3.70;;;24.50;88.80;;;;;;6160516;23;20315;-82
2023/06/21 09:25:42;;;;;;;6.80;3.70;;;24.60;87.40;;;;;;6160502;23;20013;-82
2023/06/21 09:28:08;;;;;;;6.95;3.80;;;24.70;87.40;;;;;;6159137;23;20021;-82
2023/06/21 09:30:33;;;;;;;5.95;3.50;;;24.70;87.80;;;;;;6160281;23;20024;-84
2023/06/21 09:32:59;;;;;;;5.53;3.25;;;24.80;87.80;;;;;;6160189;23;20020;-84
2023/06/21 09:35:25;;;;;;;5.20;3.10;;;24.90;87.50;;;;;;6159647;23;20051;-82
2023/06/21 09:37:50;;;;;;;37.80;3.78;;;24.90;85.30;;;;;;6159406;23;20013;-83
2023/06/21 09:40:16;;;;;;;5.35;3.20;;;25.00;85.40;;;;;;6160338;23;20024;-84
2023/06/21 09:42:44;;;;;;;6.43;2.90;;;25.00;84.80;;;;;;6159004;23;20413;-82
2023/06/21 09:45:11;;;;;;;5.97;3.10;;;25.10;84.90;;;;;;6186151;23;20063;-83
2023/06/21 09:47:42;;;;;;;7.20;3.25;;;25.20;84.50;;;;;;6185697;23;20445;-82
2023/06/21 09:50:10;;;;;;;6.28;3.40;;;25.20;83.60;;;;;;6186651;23;20025;-84
2023/06/21 09:52:36;;;;;;;4.20;2.53;;;25.20;85.00;;;;;;6186720;23;20022;-84
2023/06/21 09:55:05;;;;;;;4.97;2.70;;;25.30;85.90;;;;;;6184940;23;20017;-84
2023/06/21 09:57:32;;;;;;;5.82;3.08;;;25.30;85.20;;;;;;6160283;23;20017;-85
2023/06/21 09:59:59;;;;;;;4.65;3.10;;;25.40;85.90;;;;;;6186330;23;20017;-83
2023/06/21 10:02:25;;;;;;;5.60;2.85;;;25.40;84.10;;;;;;6186157;23;20009;-85
2023/06/21 10:04:54;;;;;;;5.80;2.40;;;25.40;84.40;;;;;;6158983;23;20009;-84
2023/06/21 10:07:24;;;;;;;4.40;2.40;;;25.50;84.20;;;;;;6186485;23;20377;-84
2023/06/21 10:09:50;;;;;;;5.47;2.25;;;25.50;83.50;;;;;;6186783;23;20013;-84
2023/06/21 10:12:16;;;;;;;4.80;2.63;;;25.50;83.60;;;;;;6175015;23;20017;-85
2023/06/21 10:14:42;;;;;;;5.40;2.10;;;25.60;83.90;;;;;;6189573;23;20095;-85
2023/06/21 10:17:08;;;;;;;4.13;2.10;;;25.70;84.20;;;;;;6185346;23;20009;-86
2023/06/21 10:19:35;;;;;;;6.40;2.35;;;25.80;83.50;;;;;;6186326;23;20374;-85
2023/06/21 10:22:07;;;;;;;4.55;2.55;;;25.90;83.00;;;;;;6159516;23;20517;-86
2023/06/21 10:24:46;;;;;;;4.88;2.15;;;26.00;80.60;;;;;;6185609;23;20017;-84
2023/06/21 10:27:13;;;;;;;4.22;2.17;;;26.00;82.30;;;;;;6186056;23;20521;-83
2023/06/21 10:29:41;;;;;;;4.15;2.20;;;26.00;80.20;;;;;;6185373;23;20507;-84
2023/06/21 10:32:08;;;;;;;4.47;2.00;;;26.00;81.30;;;;;;6159631;23;20437;-84
2023/06/21 10:35:00;;;;;;;5.38;2.10;;;26.10;81.50;;;;;;6159853;23;20013;-83
2023/06/21 10:37:36;;;;;;;4.75;2.10;;;26.10;79.60;;;;;;6184981;23;20088;-83
2023/06/21 10:40:09;;;;;;;4.80;1.90;;;26.10;79.20;;;;;;6186322;23;20025;-84
2023/06/21 10:42:36;;;;;;;4.80;2.00;;;26.10;78.10;;;;;;6186009;23;20352;-84
2023/06/21 10:45:04;;;;;;;4.60;1.90;;;26.10;79.10;;;;;;6158456;23;20044;-83
2023/06/21 10:47:31;;;;;;;3.60;1.80;;;26.10;77.90;;;;;;6185609;23;20016;-84
2023/06/21 10:49:58;;;;;;;3.90;2.00;;;26.10;79.60;;;;;;6158981;23;20025;-84
2023/06/21 10:52:25;;;;;;;5.18;1.90;;;26.20;80.20;;;;;;6158627;23;20013;-84
2023/06/21 10:54:52;;;;;;;3.63;1.83;;;26.20;78.90;;;;;;6185846;23;20334;-84
2023/06/21 10:57:19;;;;;;;3.83;1.80;;;26.20;77.40;;;;;;6159775;23;20097;-85
2023/06/21 10:59:45;;;;;;;4.85;1.98;;;26.30;78.90;;;;;;6158817;23;20028;-86
2023/06/21 11:02:12;;;;;;;4.88;1.70;;;26.20;77.90;;;;;;6158823;23;20055;-87
2023/06/21 11:05:11;;;;;;;4.40;2.17;;;26.30;80.50;;;;;;6186267;23;20021;-86
2023/06/21 11:07:37;;;;;;;6.80;2.10;;;26.40;79.00;;;;;;6186114;23;20028;-83
2023/06/21 11:10:04;;;;;;;4.63;2.13;;;26.40;77.90;;;;;;6185397;23;20009;-85
2023/06/21 11:12:30;;;;;;;4.10;1.70;;;26.40;78.40;;;;;;6158371;23;20068;-82
2023/06/21 11:14:57;;;;;;;8.00;1.90;;;26.40;78.80;;;;;;6158825;23;20028;-83
2023/06/21 11:17:24;;;;;;;5.30;1.80;;;26.40;77.50;;;;;;6182847;23;20013;-85
2023/06/21 11:19:49;;;;;;;5.00;1.80;;;26.40;76.20;;;;;;6156890;23;20327;-85
2023/06/21 11:22:24;;;;;;;4.50;2.28;;;26.40;77.90;;;;;;6184963;23;20016;-86
2023/06/21 11:25:16;;;;;;;3.95;1.90;;;26.40;76.70;;;;;;6185300;23;20017;-84
2023/06/21 11:27:43;;;;;;;4.72;2.00;;;26.40;76.50;;;;;;6158029;23;20021;-85
2023/06/21 11:30:10;;;;;;;4.35;2.05;;;26.40;76.30;;;;;;6185336;23;20048;-85
2023/06/21 11:32:37;;;;;;;4.65;1.90;;;26.40;75.80;;;;;;6184680;23;20013;-86
2023/06/21 11:35:08;;;;;;;7.20;2.33;;;26.50;76.40;;;;;;6183710;23;20013;-83
2023/06/21 11:37:36;;;;;;;6.68;2.30;;;26.40;74.00;;;;;;6182572;23;20028;-82
2023/06/21 11:40:06;;;;;;;4.50;2.10;;;26.50;76.50;;;;;;6158020;23;20044;-84
2023/06/21 11:42:34;;;;;;;5.00;2.38;;;26.60;77.80;;;;;;6186027;23;20020;-84
2023/06/21 11:45:32;;;;;;;4.95;2.00;;;26.60;76.40;;;;;;6185364;23;20044;-85
2023/06/21 11:48:06;;;;;;;4.05;1.92;;;26.70;77.30;;;;;;6184719;23;20067;-85
2023/06/21 11:50:42;;;;;;;3.88;1.90;;;26.80;77.80;;;;;;6185673;23;20021;-84
2023/06/21 11:53:38;;;;;;;5.43;2.40;;;26.90;77.60;;;;;;6185221;23;20084;-86
2023/06/21 11:56:06;;;;;;;6.63;2.42;;;26.90;74.00;;;;;;6157900;23;20020;-87
2023/06/21 11:58:33;;;;;;;4.63;2.20;;;27.00;74.20;;;;;;6185199;23;20020;-88
2023/06/21 12:00:58;;;;;;;6.30;2.33;;;27.00;74.60;;;;;;6158291;23;20006;-88
2023/06/21 12:03:27;;;;;;;4.63;2.10;;;27.10;73.90;;;;;;6185340;23;20314;-84
2023/06/21 12:05:58;;;;;;;6.57;1.90;;;27.10;71.90;;;;;;6158090;23;20099;-84
2023/06/21 12:08:29;;;;;;;3.92;2.10;;;27.20;70.20;;;;;;6184654;23;20315;-86
2023/06/21 12:11:00;;;;;;;5.15;2.30;;;27.20;68.60;;;;;;6158384;23;20349;-86
2023/06/21 12:13:27;;;;;;;4.55;2.13;;;27.20;68.30;;;;;;6157380;23;20021;-86
2023/06/21 12:16:01;;;;;;;6.65;2.58;;;27.20;67.80;;;;;;6156268;23;20449;-86
2023/06/21 12:18:28;;;;;;;4.45;2.03;;;27.20;69.10;;;;;;6183851;23;20068;-85
2023/06/21 12:20:55;;;;;;;5.43;2.20;;;27.30;70.00;;;;;;6183736;23;20013;-85
2023/06/21 12:23:22;;;;;;;3.20;1.60;;;27.30;67.90;;;;;;6156495;23;20457;-88
2023/06/21 12:25:52;;;;;;;4.05;1.92;;;27.30;70.10;;;;;;6157288;23;20100;-88
2023/06/21 12:28:20;;;;;;;3.85;1.73;;;27.30;75.50;;;;;;6183302;23;20017;-89
2023/06/21 12:30:56;;;;;;;4.85;1.83;;;27.40;74.90;;;;;;6156846;23;20024;-87
2023/06/21 12:33:29;;;;;;;5.10;1.80;;;27.30;69.30;;;;;;6157726;23;20055;-85
2023/06/21 12:36:16;;;;;;;4.00;1.67;;;27.40;65.20;;;;;;6157351;23;20595;-89
2023/06/21 12:38:47;;;;;;;4.97;1.80;;;27.40;69.60;;;;;;6184438;23;20052;-85
2023/06/21 12:41:16;;;;;;;3.60;1.60;;;27.40;66.80;;;;;;6183873;23;20021;-88